Merna, Nebraska
Current Conditions -  °F | °C
As of 12:53 PM on Wednesday 26 Nov 2014 (Local Time) from KBBW Reporting Station
Clear Clear  
Wind Chill: -7°   Ceiling: Unl
Heat Index: -1°   Visibility: 10mi
Dew Point: -7°   Wind: 18mph
Humidity: 61%   Direction: 350°N
Pressure: 30.25"   Gusts: NA
Location:  41.48°N, 99.76°W
Report Text: KBBW 261853Z AUTO 35016KT 10SM CLR M01/M07 A3025 RMK AO2 SLP265 T10061072
Loading
Personal Weather Stations






























Interactive Weather Map New forecast layout! Learn more

10-Day Weather Forecast

Advertisements
Track Severe Weather on mobile